This is the latest recevied weather packets stored in our database for station/object OE-11272. If no packets are shown the sender has not sent any weather packets the latest 10 day(s).
| Time | Temp. | Humidity | Pressure | Rain* | Wind** | Luminosity | Snow |
|---|---|---|---|---|---|---|---|
| 1788042925 | 16.67° C | 92% | 1017.3 hPa | 0 mm | - | 0 W/m² | - |
| 1788042325 | 17.22° C | 90% | 1017.1 hPa | 0 mm | - | 0 W/m² | - |
| 1788041499 | 17.22° C | 88% | 1017 hPa | 0 mm | - | 0 W/m² | - |
| 1788041126 | 17.78° C | 85% | 1017 hPa | 0 mm | - | 0 W/m² | - |
| 1788040526 | 17.22° C | 93% | 1017.2 hPa | 0 mm | - | 0 W/m² | - |
| 1788039699 | 17.22° C | 94% | 1017.2 hPa | 0 mm | - | 0 W/m² | - |
| 1788039325 | 17.22° C | 94% | 1017.2 hPa | 0 mm | - | 0 W/m² | - |
| 1788038726 | 17.22° C | 92% | 1017.1 hPa | 0 mm | - | 0 W/m² | - |
| 1788037899 | 17.78° C | 90% | 1017 hPa | 0 mm | - | 0 W/m² | - |
| 1788037525 | 17.78° C | 89% | 1017 hPa | 0 mm | - | 0 W/m² | - |
| 1788036926 | 17.78° C | 90% | 1016.9 hPa | 0 mm | - | 0 W/m² | - |
| 1788036099 | 17.22° C | 90% | 1017 hPa | 0 mm | - | 0 W/m² | - |
| 1788035725 | 17.22° C | 94% | 1017.1 hPa | 0 mm | - | 0 W/m² | - |
| 1788035126 | 17.22° C | 93% | 1016.9 hPa | 0 mm | - | 0 W/m² | - |
| 1788034299 | 16.67° C | 94% | 1016.9 hPa | 0 mm | - | 0 W/m² | - |
| 1788033926 | 16.67° C | 93% | 1016.8 hPa | 0 mm | - | 0 W/m² | - |
| 1788033326 | 17.22° C | 93% | 1016.7 hPa | 0 mm | - | 0 W/m² | - |
| 1788032499 | 17.22° C | 91% | 1016.4 hPa | 0 mm | - | 0 W/m² | - |
| 1788032126 | 17.78° C | 89% | 1016.4 hPa | 0 mm | - | 0 W/m² | - |
| 1788031526 | 17.78° C | 88% | 1016.3 hPa | 0 mm | - | 0 W/m² | - |
| 1788030699 | 18.33° C | 88% | 1016.1 hPa | 0 mm | - | 0 W/m² | - |
| 1788030326 | 18.33° C | 88% | 1016 hPa | 0 mm | - | 0 W/m² | - |
| 1788029726 | 18.89° C | 87% | 1015.7 hPa | 0 mm | - | 0 W/m² | - |
| 1788028899 | 18.89° C | 84% | 1015.7 hPa | 0 mm | - | 0 W/m² | - |
| 1788028526 | 18.89° C | 86% | 1015.6 hPa | 0 mm | - | 0 W/m² | - |
* Rain latest hour (hover to see other rain measurements)
** Current wind speed in m/s (hover to see current wind gust speed)